Coal City, Illinois
Current Conditions -  °F | °C
As of 6:15 PM on Saturday 25 Oct 2014 (Local Time) from KC09 Reporting Station
Clear Clear  
Wind Chill: 62°   Ceiling: Unl
Heat Index: 62°   Visibility: 10mi
Dew Point: 35°   Wind: 7mph
Humidity: 36%   Direction: 290°WNW
Pressure: 29.94"   Gusts: NA
Location:  41.29°N, 88.29°W
Report Text: KC09 252315Z AUTO 29006KT 10SM CLR 17/02 A2994 RMK AO2 T01670015
Loading
Personal Weather Stations






























Interactive Weather Map
Tropical Storm Tracking
New forecast layout! Learn more

10-Day Weather Forecast

Advertisements
Track Severe Weather on mobile